sensor_id;sensor_type;location;lat;lon;timestamp;temperature;humidity
14723;DHT22;7452;55.594;12.986;2023-05-23T00:01:38;22.80;99.90
14723;DHT22;7452;55.594;12.986;2023-05-23T00:04:05;22.80;99.90
14723;DHT22;7452;55.594;12.986;2023-05-23T00:06:33;22.80;99.90
14723;DHT22;7452;55.594;12.986;2023-05-23T00:09:00;22.80;99.90
14723;DHT22;7452;55.594;12.986;2023-05-23T00:11:29;22.80;99.90
14723;DHT22;7452;55.594;12.986;2023-05-23T00:13:55;22.80;99.90
14723;DHT22;7452;55.594;12.986;2023-05-23T00:16:25;22.80;99.90
14723;DHT22;7452;55.594;12.986;2023-05-23T00:18:52;22.80;99.90
14723;DHT22;7452;55.594;12.986;2023-05-23T00:21:22;22.80;99.90
14723;DHT22;7452;55.594;12.986;2023-05-23T00:23:49;22.80;99.90
14723;DHT22;7452;55.594;12.986;2023-05-23T00:26:16;22.80;99.90
14723;DHT22;7452;55.594;12.986;2023-05-23T00:28:44;22.80;99.90
14723;DHT22;7452;55.594;12.986;2023-05-23T00:31:11;22.80;99.90
14723;DHT22;7452;55.594;12.986;2023-05-23T00:33:38;22.80;99.90
14723;DHT22;7452;55.594;12.986;2023-05-23T00:36:05;22.80;99.90
14723;DHT22;7452;55.594;12.986;2023-05-23T00:38:32;22.80;99.90
14723;DHT22;7452;55.594;12.986;2023-05-23T00:41:00;22.80;99.90
14723;DHT22;7452;55.594;12.986;2023-05-23T00:43:27;22.80;99.90
14723;DHT22;7452;55.594;12.986;2023-05-23T00:45:55;22.80;99.90
14723;DHT22;7452;55.594;12.986;2023-05-23T00:48:23;22.80;99.90
14723;DHT22;7452;55.594;12.986;2023-05-23T00:50:50;22.80;99.90
14723;DHT22;7452;55.594;12.986;2023-05-23T00:53:17;22.80;99.90
14723;DHT22;7452;55.594;12.986;2023-05-23T00:55:44;22.80;99.90
14723;DHT22;7452;55.594;12.986;2023-05-23T00:58:12;22.80;99.90
14723;DHT22;7452;55.594;12.986;2023-05-23T01:00:40;22.80;99.90
14723;DHT22;7452;55.594;12.986;2023-05-23T01:03:11;22.80;99.90
14723;DHT22;7452;55.594;12.986;2023-05-23T01:05:41;22.70;99.90
14723;DHT22;7452;55.594;12.986;2023-05-23T01:08:08;22.80;99.90
14723;DHT22;7452;55.594;12.986;2023-05-23T01:10:36;22.70;99.90
14723;DHT22;7452;55.594;12.986;2023-05-23T01:13:12;22.80;99.90
14723;DHT22;7452;55.594;12.986;2023-05-23T01:15:48;22.80;99.90
14723;DHT22;7452;55.594;12.986;2023-05-23T01:18:28;22.80;99.90
14723;DHT22;7452;55.594;12.986;2023-05-23T01:21:00;22.80;99.90
14723;DHT22;7452;55.594;12.986;2023-05-23T01:23:41;22.80;99.90
14723;DHT22;7452;55.594;12.986;2023-05-23T01:26:21;22.70;99.90
14723;DHT22;7452;55.594;12.986;2023-05-23T01:28:55;22.70;99.90
14723;DHT22;7452;55.594;12.986;2023-05-23T01:31:23;22.70;99.90
14723;DHT22;7452;55.594;12.986;2023-05-23T01:33:53;22.80;99.90
14723;DHT22;7452;55.594;12.986;2023-05-23T01:36:21;22.70;99.90
14723;DHT22;7452;55.594;12.986;2023-05-23T01:38:48;22.70;99.90
14723;DHT22;7452;55.594;12.986;2023-05-23T01:41:15;22.80;99.90
14723;DHT22;7452;55.594;12.986;2023-05-23T01:43:42;22.80;99.90
14723;DHT22;7452;55.594;12.986;2023-05-23T01:46:10;22.80;99.90
14723;DHT22;7452;55.594;12.986;2023-05-23T01:48:38;22.70;99.90
14723;DHT22;7452;55.594;12.986;2023-05-23T01:51:07;22.70;99.90
14723;DHT22;7452;55.594;12.986;2023-05-23T01:53:34;22.70;99.90
14723;DHT22;7452;55.594;12.986;2023-05-23T01:56:02;22.70;99.90
14723;DHT22;7452;55.594;12.986;2023-05-23T01:58:29;22.70;99.90
14723;DHT22;7452;55.594;12.986;2023-05-23T02:00:56;22.70;99.90
14723;DHT22;7452;55.594;12.986;2023-05-23T02:03:25;22.70;99.90
14723;DHT22;7452;55.594;12.986;2023-05-23T02:05:52;22.70;99.90
14723;DHT22;7452;55.594;12.986;2023-05-23T02:08:19;22.70;99.90
14723;DHT22;7452;55.594;12.986;2023-05-23T02:10:46;22.70;99.90
14723;DHT22;7452;55.594;12.986;2023-05-23T02:13:13;22.70;99.90
14723;DHT22;7452;55.594;12.986;2023-05-23T02:15:40;22.70;99.90
14723;DHT22;7452;55.594;12.986;2023-05-23T02:18:07;22.70;99.90
14723;DHT22;7452;55.594;12.986;2023-05-23T02:20:35;22.70;99.90
14723;DHT22;7452;55.594;12.986;2023-05-23T02:23:02;22.70;99.90
14723;DHT22;7452;55.594;12.986;2023-05-23T02:25:29;22.70;99.90
14723;DHT22;7452;55.594;12.986;2023-05-23T02:27:55;22.70;99.90
14723;DHT22;7452;55.594;12.986;2023-05-23T02:30:22;22.70;99.90
14723;DHT22;7452;55.594;12.986;2023-05-23T02:32:49;22.70;99.90
14723;DHT22;7452;55.594;12.986;2023-05-23T02:35:16;22.70;99.90
14723;DHT22;7452;55.594;12.986;2023-05-23T02:37:45;22.70;99.90
14723;DHT22;7452;55.594;12.986;2023-05-23T02:40:12;22.70;99.90
14723;DHT22;7452;55.594;12.986;2023-05-23T02:42:39;22.70;99.90
14723;DHT22;7452;55.594;12.986;2023-05-23T02:45:07;22.70;99.90
14723;DHT22;7452;55.594;12.986;2023-05-23T02:47:34;22.70;99.90
14723;DHT22;7452;55.594;12.986;2023-05-23T02:50:01;22.70;99.90
14723;DHT22;7452;55.594;12.986;2023-05-23T02:52:28;22.70;99.90
14723;DHT22;7452;55.594;12.986;2023-05-23T02:54:56;22.70;99.90
14723;DHT22;7452;55.594;12.986;2023-05-23T02:57:23;22.70;99.90
14723;DHT22;7452;55.594;12.986;2023-05-23T02:59:50;22.70;99.90
14723;DHT22;7452;55.594;12.986;2023-05-23T03:02:17;22.70;99.90
14723;DHT22;7452;55.594;12.986;2023-05-23T03:04:44;22.70;99.90
14723;DHT22;7452;55.594;12.986;2023-05-23T03:07:11;22.70;99.90
14723;DHT22;7452;55.594;12.986;2023-05-23T03:09:39;22.70;99.90
14723;DHT22;7452;55.594;12.986;2023-05-23T03:12:08;22.70;99.90
14723;DHT22;7452;55.594;12.986;2023-05-23T03:14:35;22.70;99.90
14723;DHT22;7452;55.594;12.986;2023-05-23T03:17:02;22.70;99.90
14723;DHT22;7452;55.594;12.986;2023-05-23T03:19:29;22.70;99.90
14723;DHT22;7452;55.594;12.986;2023-05-23T03:21:56;22.70;99.90
14723;DHT22;7452;55.594;12.986;2023-05-23T03:24:23;22.70;99.90
14723;DHT22;7452;55.594;12.986;2023-05-23T03:26:50;22.70;99.90
14723;DHT22;7452;55.594;12.986;2023-05-23T03:29:18;22.70;99.90
14723;DHT22;7452;55.594;12.986;2023-05-23T03:31:45;22.70;99.90
14723;DHT22;7452;55.594;12.986;2023-05-23T03:34:12;22.70;99.90
14723;DHT22;7452;55.594;12.986;2023-05-23T03:36:39;22.70;99.90
14723;DHT22;7452;55.594;12.986;2023-05-23T03:39:06;22.70;99.90
14723;DHT22;7452;55.594;12.986;2023-05-23T03:41:33;22.70;99.90
14723;DHT22;7452;55.594;12.986;2023-05-23T03:44:00;22.70;99.90
14723;DHT22;7452;55.594;12.986;2023-05-23T03:46:29;22.70;99.90
14723;DHT22;7452;55.594;12.986;2023-05-23T03:48:56;22.70;99.90
14723;DHT22;7452;55.594;12.986;2023-05-23T03:51:23;22.70;99.90
14723;DHT22;7452;55.594;12.986;2023-05-23T03:53:50;22.70;99.90
14723;DHT22;7452;55.594;12.986;2023-05-23T03:56:17;22.70;99.90
14723;DHT22;7452;55.594;12.986;2023-05-23T03:58:44;22.70;99.90
14723;DHT22;7452;55.594;12.986;2023-05-23T04:01:10;22.80;99.90
14723;DHT22;7452;55.594;12.986;2023-05-23T04:03:39;23.00;99.90
14723;DHT22;7452;55.594;12.986;2023-05-23T04:06:06;23.20;99.90
14723;DHT22;7452;55.594;12.986;2023-05-23T04:08:33;23.30;99.90
14723;DHT22;7452;55.594;12.986;2023-05-23T04:11:00;23.40;99.90
14723;DHT22;7452;55.594;12.986;2023-05-23T04:13:27;23.20;99.90
14723;DHT22;7452;55.594;12.986;2023-05-23T04:15:55;23.10;99.90
14723;DHT22;7452;55.594;12.986;2023-05-23T04:18:22;23.00;99.90
14723;DHT22;7452;55.594;12.986;2023-05-23T04:20:51;22.90;99.90
14723;DHT22;7452;55.594;12.986;2023-05-23T04:23:17;23.00;99.90
14723;DHT22;7452;55.594;12.986;2023-05-23T04:25:44;23.00;99.90
14723;DHT22;7452;55.594;12.986;2023-05-23T04:28:12;23.00;99.90
14723;DHT22;7452;55.594;12.986;2023-05-23T04:30:42;23.00;99.90
14723;DHT22;7452;55.594;12.986;2023-05-23T04:33:09;23.10;99.90
14723;DHT22;7452;55.594;12.986;2023-05-23T04:35:36;23.00;99.90
14723;DHT22;7452;55.594;12.986;2023-05-23T04:38:06;23.00;99.90
14723;DHT22;7452;55.594;12.986;2023-05-23T04:40:33;23.00;99.90
14723;DHT22;7452;55.594;12.986;2023-05-23T04:43:00;23.00;99.90
14723;DHT22;7452;55.594;12.986;2023-05-23T04:45:27;23.00;99.90
14723;DHT22;7452;55.594;12.986;2023-05-23T04:47:54;23.00;99.90
14723;DHT22;7452;55.594;12.986;2023-05-23T04:50:21;23.00;99.90
14723;DHT22;7452;55.594;12.986;2023-05-23T04:52:48;23.00;99.90
14723;DHT22;7452;55.594;12.986;2023-05-23T04:55:17;23.00;99.90
14723;DHT22;7452;55.594;12.986;2023-05-23T04:57:44;23.00;99.90
14723;DHT22;7452;55.594;12.986;2023-05-23T05:00:12;23.00;99.90
14723;DHT22;7452;55.594;12.986;2023-05-23T05:02:40;23.00;99.90
14723;DHT22;7452;55.594;12.986;2023-05-23T05:05:08;23.10;99.90
14723;DHT22;7452;55.594;12.986;2023-05-23T05:07:35;23.10;99.90
14723;DHT22;7452;55.594;12.986;2023-05-23T05:10:03;23.10;99.90
14723;DHT22;7452;55.594;12.986;2023-05-23T05:12:31;23.10;99.90
14723;DHT22;7452;55.594;12.986;2023-05-23T05:14:59;23.10;99.90
14723;DHT22;7452;55.594;12.986;2023-05-23T05:17:26;23.10;99.90
14723;DHT22;7452;55.594;12.986;2023-05-23T05:19:54;23.20;99.90
14723;DHT22;7452;55.594;12.986;2023-05-23T05:22:21;23.20;99.90
14723;DHT22;7452;55.594;12.986;2023-05-23T05:24:50;23.20;99.90
14723;DHT22;7452;55.594;12.986;2023-05-23T05:27:17;23.20;99.90
14723;DHT22;7452;55.594;12.986;2023-05-23T05:29:45;23.20;99.90
14723;DHT22;7452;55.594;12.986;2023-05-23T05:32:12;23.20;99.90
14723;DHT22;7452;55.594;12.986;2023-05-23T05:34:39;23.20;99.90
14723;DHT22;7452;55.594;12.986;2023-05-23T05:37:07;23.20;99.90
14723;DHT22;7452;55.594;12.986;2023-05-23T05:39:34;23.20;99.90
14723;DHT22;7452;55.594;12.986;2023-05-23T05:42:01;23.20;99.90
14723;DHT22;7452;55.594;12.986;2023-05-23T05:44:29;23.20;99.90
14723;DHT22;7452;55.594;12.986;2023-05-23T05:46:58;23.20;99.90
14723;DHT22;7452;55.594;12.986;2023-05-23T05:49:25;23.20;99.90
14723;DHT22;7452;55.594;12.986;2023-05-23T05:51:52;23.20;99.90
14723;DHT22;7452;55.594;12.986;2023-05-23T05:54:19;23.20;99.90
14723;DHT22;7452;55.594;12.986;2023-05-23T05:56:46;23.20;99.90
14723;DHT22;7452;55.594;12.986;2023-05-23T05:59:13;23.20;99.90
14723;DHT22;7452;55.594;12.986;2023-05-23T06:01:40;23.20;99.90
14723;DHT22;7452;55.594;12.986;2023-05-23T06:04:10;23.20;99.90
14723;DHT22;7452;55.594;12.986;2023-05-23T06:06:38;23.10;99.90
14723;DHT22;7452;55.594;12.986;2023-05-23T06:09:05;23.10;99.90
14723;DHT22;7452;55.594;12.986;2023-05-23T06:11:32;23.10;99.90
14723;DHT22;7452;55.594;12.986;2023-05-23T06:16:24;23.10;99.90
14723;DHT22;7452;55.594;12.986;2023-05-23T06:18:51;23.10;99.90
14723;DHT22;7452;55.594;12.986;2023-05-23T06:21:19;23.10;99.90
14723;DHT22;7452;55.594;12.986;2023-05-23T06:23:46;23.10;99.90
14723;DHT22;7452;55.594;12.986;2023-05-23T06:26:13;23.10;99.90
14723;DHT22;7452;55.594;12.986;2023-05-23T06:28:40;23.10;99.90
14723;DHT22;7452;55.594;12.986;2023-05-23T06:31:07;23.10;99.90
14723;DHT22;7452;55.594;12.986;2023-05-23T06:33:35;23.10;99.90
14723;DHT22;7452;55.594;12.986;2023-05-23T06:36:02;23.10;99.90
14723;DHT22;7452;55.594;12.986;2023-05-23T06:38:31;23.10;99.90
14723;DHT22;7452;55.594;12.986;2023-05-23T06:40:59;23.10;99.90
14723;DHT22;7452;55.594;12.986;2023-05-23T06:43:26;23.10;99.90
14723;DHT22;7452;55.594;12.986;2023-05-23T06:45:53;23.10;99.90
14723;DHT22;7452;55.594;12.986;2023-05-23T06:48:20;23.10;99.90
14723;DHT22;7452;55.594;12.986;2023-05-23T06:50:48;23.10;99.90
14723;DHT22;7452;55.594;12.986;2023-05-23T06:53:15;23.10;99.90
14723;DHT22;7452;55.594;12.986;2023-05-23T06:55:44;23.10;99.90
14723;DHT22;7452;55.594;12.986;2023-05-23T06:58:11;23.10;99.90
14723;DHT22;7452;55.594;12.986;2023-05-23T07:00:39;23.10;99.90
14723;DHT22;7452;55.594;12.986;2023-05-23T07:03:09;23.10;99.90
14723;DHT22;7452;55.594;12.986;2023-05-23T07:05:39;23.20;99.90
14723;DHT22;7452;55.594;12.986;2023-05-23T07:08:07;23.10;99.90
14723;DHT22;7452;55.594;12.986;2023-05-23T07:10:35;23.20;99.90
14723;DHT22;7452;55.594;12.986;2023-05-23T07:13:05;23.20;99.90
14723;DHT22;7452;55.594;12.986;2023-05-23T07:15:31;23.20;99.90
14723;DHT22;7452;55.594;12.986;2023-05-23T07:17:58;23.20;99.90
14723;DHT22;7452;55.594;12.986;2023-05-23T07:20:25;23.10;99.90
14723;DHT22;7452;55.594;12.986;2023-05-23T07:22:52;23.20;99.90
14723;DHT22;7452;55.594;12.986;2023-05-23T07:25:19;23.20;99.90
14723;DHT22;7452;55.594;12.986;2023-05-23T07:27:47;23.20;99.90
14723;DHT22;7452;55.594;12.986;2023-05-23T07:30:16;23.20;99.90
14723;DHT22;7452;55.594;12.986;2023-05-23T07:32:44;23.20;99.90
14723;DHT22;7452;55.594;12.986;2023-05-23T07:35:12;23.20;99.90
14723;DHT22;7452;55.594;12.986;2023-05-23T07:37:39;23.20;99.90
14723;DHT22;7452;55.594;12.986;2023-05-23T07:40:07;23.20;99.90
14723;DHT22;7452;55.594;12.986;2023-05-23T07:42:35;23.20;99.90
14723;DHT22;7452;55.594;12.986;2023-05-23T07:45:02;23.30;99.90
14723;DHT22;7452;55.594;12.986;2023-05-23T07:47:31;23.20;99.90
14723;DHT22;7452;55.594;12.986;2023-05-23T07:49:57;23.20;99.90
14723;DHT22;7452;55.594;12.986;2023-05-23T07:52:27;23.30;99.90
14723;DHT22;7452;55.594;12.986;2023-05-23T07:54:54;23.20;99.90
14723;DHT22;7452;55.594;12.986;2023-05-23T07:57:21;23.20;99.90
14723;DHT22;7452;55.594;12.986;2023-05-23T07:59:49;23.20;99.90
14723;DHT22;7452;55.594;12.986;2023-05-23T08:02:16;23.20;99.90
14723;DHT22;7452;55.594;12.986;2023-05-23T08:04:45;23.20;99.90
14723;DHT22;7452;55.594;12.986;2023-05-23T08:07:12;23.20;99.90
14723;DHT22;7452;55.594;12.986;2023-05-23T08:09:40;23.20;99.90
14723;DHT22;7452;55.594;12.986;2023-05-23T08:12:07;23.20;99.90
14723;DHT22;7452;55.594;12.986;2023-05-23T08:14:34;23.20;99.90
14723;DHT22;7452;55.594;12.986;2023-05-23T08:17:02;23.20;99.90
14723;DHT22;7452;55.594;12.986;2023-05-23T08:19:29;23.10;99.90
14723;DHT22;7452;55.594;12.986;2023-05-23T08:21:57;23.10;99.90
14723;DHT22;7452;55.594;12.986;2023-05-23T08:24:24;23.10;99.90
14723;DHT22;7452;55.594;12.986;2023-05-23T08:26:51;23.10;99.90
14723;DHT22;7452;55.594;12.986;2023-05-23T08:29:21;23.10;99.90
14723;DHT22;7452;55.594;12.986;2023-05-23T08:31:51;23.10;99.90
14723;DHT22;7452;55.594;12.986;2023-05-23T08:34:18;23.00;99.90
14723;DHT22;7452;55.594;12.986;2023-05-23T08:36:46;23.00;99.90
14723;DHT22;7452;55.594;12.986;2023-05-23T08:39:14;23.00;99.90
14723;DHT22;7452;55.594;12.986;2023-05-23T08:41:41;23.00;99.90
14723;DHT22;7452;55.594;12.986;2023-05-23T08:44:08;23.00;99.90
14723;DHT22;7452;55.594;12.986;2023-05-23T08:46:39;23.00;99.90
14723;DHT22;7452;55.594;12.986;2023-05-23T08:49:10;23.00;99.90
14723;DHT22;7452;55.594;12.986;2023-05-23T08:51:42;23.00;99.90
14723;DHT22;7452;55.594;12.986;2023-05-23T08:54:10;23.00;99.90
14723;DHT22;7452;55.594;12.986;2023-05-23T08:56:39;23.00;99.90
14723;DHT22;7452;55.594;12.986;2023-05-23T08:59:07;23.10;99.90
14723;DHT22;7452;55.594;12.986;2023-05-23T09:01:35;23.00;99.90
14723;DHT22;7452;55.594;12.986;2023-05-23T09:04:05;23.00;99.90
14723;DHT22;7452;55.594;12.986;2023-05-23T09:06:32;23.00;99.90
14723;DHT22;7452;55.594;12.986;2023-05-23T09:08:59;23.00;99.90
14723;DHT22;7452;55.594;12.986;2023-05-23T09:11:26;23.00;99.90
14723;DHT22;7452;55.594;12.986;2023-05-23T09:13:57;23.10;99.90
14723;DHT22;7452;55.594;12.986;2023-05-23T09:16:31;23.10;99.90
14723;DHT22;7452;55.594;12.986;2023-05-23T09:18:58;23.20;99.90
14723;DHT22;7452;55.594;12.986;2023-05-23T09:21:30;23.20;99.90
14723;DHT22;7452;55.594;12.986;2023-05-23T09:23:58;23.20;99.90
14723;DHT22;7452;55.594;12.986;2023-05-23T09:26:25;23.30;99.90
14723;DHT22;7452;55.594;12.986;2023-05-23T09:28:57;23.30;99.90
14723;DHT22;7452;55.594;12.986;2023-05-23T09:31:28;23.30;99.90
14723;DHT22;7452;55.594;12.986;2023-05-23T09:33:57;23.30;99.90
14723;DHT22;7452;55.594;12.986;2023-05-23T09:36:27;23.30;99.90
14723;DHT22;7452;55.594;12.986;2023-05-23T09:39:01;23.30;99.90
14723;DHT22;7452;55.594;12.986;2023-05-23T09:41:30;23.30;99.90
14723;DHT22;7452;55.594;12.986;2023-05-23T09:44:05;23.30;99.90
14723;DHT22;7452;55.594;12.986;2023-05-23T09:46:34;23.40;99.90
14723;DHT22;7452;55.594;12.986;2023-05-23T09:49:02;23.40;99.90
14723;DHT22;7452;55.594;12.986;2023-05-23T09:51:28;23.40;99.90
14723;DHT22;7452;55.594;12.986;2023-05-23T09:53:55;23.40;99.90
14723;DHT22;7452;55.594;12.986;2023-05-23T09:56:23;23.40;99.90
14723;DHT22;7452;55.594;12.986;2023-05-23T09:58:53;23.40;99.90
14723;DHT22;7452;55.594;12.986;2023-05-23T10:01:22;23.40;99.90
14723;DHT22;7452;55.594;12.986;2023-05-23T10:03:51;23.40;99.90
14723;DHT22;7452;55.594;12.986;2023-05-23T10:06:24;23.40;99.90
14723;DHT22;7452;55.594;12.986;2023-05-23T10:08:56;23.40;99.90
14723;DHT22;7452;55.594;12.986;2023-05-23T10:14:44;23.40;99.90
14723;DHT22;7452;55.594;12.986;2023-05-23T10:17:20;23.40;99.90
14723;DHT22;7452;55.594;12.986;2023-05-23T10:19:52;23.50;99.90
14723;DHT22;7452;55.594;12.986;2023-05-23T10:22:22;23.50;99.90
14723;DHT22;7452;55.594;12.986;2023-05-23T10:24:50;23.50;99.90
14723;DHT22;7452;55.594;12.986;2023-05-23T10:27:17;23.50;99.90
14723;DHT22;7452;55.594;12.986;2023-05-23T10:29:44;23.50;99.90
14723;DHT22;7452;55.594;12.986;2023-05-23T10:32:11;23.50;99.90
14723;DHT22;7452;55.594;12.986;2023-05-23T10:34:45;23.50;99.90
14723;DHT22;7452;55.594;12.986;2023-05-23T10:37:23;23.50;99.90
14723;DHT22;7452;55.594;12.986;2023-05-23T10:39:58;23.50;99.90
14723;DHT22;7452;55.594;12.986;2023-05-23T10:42:40;23.50;99.90
14723;DHT22;7452;55.594;12.986;2023-05-23T10:45:15;23.50;99.90
14723;DHT22;7452;55.594;12.986;2023-05-23T10:47:43;23.60;99.90
14723;DHT22;7452;55.594;12.986;2023-05-23T10:50:16;23.60;99.90
14723;DHT22;7452;55.594;12.986;2023-05-23T10:52:56;23.60;99.90
14723;DHT22;7452;55.594;12.986;2023-05-23T10:55:23;23.60;99.90
14723;DHT22;7452;55.594;12.986;2023-05-23T10:58:09;23.60;99.90
14723;DHT22;7452;55.594;12.986;2023-05-23T11:00:36;23.70;99.90
14723;DHT22;7452;55.594;12.986;2023-05-23T11:03:04;23.70;99.90
14723;DHT22;7452;55.594;12.986;2023-05-23T11:05:34;23.70;99.90
14723;DHT22;7452;55.594;12.986;2023-05-23T11:08:09;23.70;99.90
14723;DHT22;7452;55.594;12.986;2023-05-23T11:10:55;23.70;99.90
14723;DHT22;7452;55.594;12.986;2023-05-23T11:13:22;23.70;99.90
14723;DHT22;7452;55.594;12.986;2023-05-23T11:15:49;23.70;99.90
14723;DHT22;7452;55.594;12.986;2023-05-23T11:18:21;23.70;99.90
14723;DHT22;7452;55.594;12.986;2023-05-23T11:20:51;23.70;99.90
14723;DHT22;7452;55.594;12.986;2023-05-23T11:23:19;23.70;99.90
14723;DHT22;7452;55.594;12.986;2023-05-23T11:25:51;23.70;99.90
14723;DHT22;7452;55.594;12.986;2023-05-23T11:28:20;23.70;99.90
14723;DHT22;7452;55.594;12.986;2023-05-23T11:30:51;23.60;99.90
14723;DHT22;7452;55.594;12.986;2023-05-23T11:33:18;23.60;99.90
14723;DHT22;7452;55.594;12.986;2023-05-23T11:35:46;23.60;99.90
14723;DHT22;7452;55.594;12.986;2023-05-23T11:38:16;23.60;99.90
14723;DHT22;7452;55.594;12.986;2023-05-23T11:40:44;23.60;99.90
14723;DHT22;7452;55.594;12.986;2023-05-23T11:43:13;23.60;99.90
14723;DHT22;7452;55.594;12.986;2023-05-23T11:45:41;23.70;99.90
14723;DHT22;7452;55.594;12.986;2023-05-23T11:48:09;23.70;99.90
14723;DHT22;7452;55.594;12.986;2023-05-23T11:50:44;23.70;99.90
14723;DHT22;7452;55.594;12.986;2023-05-23T11:53:12;23.70;99.90
14723;DHT22;7452;55.594;12.986;2023-05-23T11:55:47;23.70;99.90
14723;DHT22;7452;55.594;12.986;2023-05-23T11:58:15;23.70;99.90
14723;DHT22;7452;55.594;12.986;2023-05-23T12:00:43;23.70;99.90
14723;DHT22;7452;55.594;12.986;2023-05-23T12:03:10;23.70;99.90
14723;DHT22;7452;55.594;12.986;2023-05-23T12:05:37;23.70;99.90
14723;DHT22;7452;55.594;12.986;2023-05-23T12:08:04;23.70;99.90
14723;DHT22;7452;55.594;12.986;2023-05-23T12:10:31;23.70;99.90
14723;DHT22;7452;55.594;12.986;2023-05-23T12:13:00;23.70;99.90
14723;DHT22;7452;55.594;12.986;2023-05-23T12:15:27;23.70;99.90
14723;DHT22;7452;55.594;12.986;2023-05-23T12:17:56;23.60;99.90
14723;DHT22;7452;55.594;12.986;2023-05-23T12:20:25;23.60;99.90
14723;DHT22;7452;55.594;12.986;2023-05-23T12:22:53;23.60;99.90
14723;DHT22;7452;55.594;12.986;2023-05-23T12:25:20;23.60;99.90
14723;DHT22;7452;55.594;12.986;2023-05-23T12:27:48;23.60;99.90
14723;DHT22;7452;55.594;12.986;2023-05-23T12:30:16;23.60;99.90
14723;DHT22;7452;55.594;12.986;2023-05-23T12:32:44;23.60;99.90
14723;DHT22;7452;55.594;12.986;2023-05-23T12:35:14;23.60;99.90
14723;DHT22;7452;55.594;12.986;2023-05-23T12:37:43;23.60;99.90
14723;DHT22;7452;55.594;12.986;2023-05-23T12:40:12;23.50;99.90
14723;DHT22;7452;55.594;12.986;2023-05-23T12:42:49;23.50;99.90
14723;DHT22;7452;55.594;12.986;2023-05-23T12:45:19;23.50;99.90
14723;DHT22;7452;55.594;12.986;2023-05-23T12:47:46;23.50;99.90
14723;DHT22;7452;55.594;12.986;2023-05-23T12:50:13;23.50;99.90
14723;DHT22;7452;55.594;12.986;2023-05-23T12:52:40;23.50;99.90
14723;DHT22;7452;55.594;12.986;2023-05-23T12:55:08;23.50;99.90
14723;DHT22;7452;55.594;12.986;2023-05-23T12:57:35;23.50;99.90
14723;DHT22;7452;55.594;12.986;2023-05-23T13:00:05;23.50;99.90
14723;DHT22;7452;55.594;12.986;2023-05-23T13:02:34;23.40;99.90
14723;DHT22;7452;55.594;12.986;2023-05-23T13:05:01;23.40;99.90
14723;DHT22;7452;55.594;12.986;2023-05-23T13:07:28;23.40;99.90
14723;DHT22;7452;55.594;12.986;2023-05-23T13:09:55;23.40;99.90
14723;DHT22;7452;55.594;12.986;2023-05-23T13:12:23;23.40;99.90
14723;DHT22;7452;55.594;12.986;2023-05-23T13:14:50;23.40;99.90
14723;DHT22;7452;55.594;12.986;2023-05-23T13:17:17;23.40;99.90
14723;DHT22;7452;55.594;12.986;2023-05-23T13:19:46;23.40;99.90
14723;DHT22;7452;55.594;12.986;2023-05-23T13:22:13;23.40;99.90
14723;DHT22;7452;55.594;12.986;2023-05-23T13:24:40;23.40;99.90
14723;DHT22;7452;55.594;12.986;2023-05-23T13:27:08;23.40;99.90
14723;DHT22;7452;55.594;12.986;2023-05-23T13:29:35;23.40;99.90
14723;DHT22;7452;55.594;12.986;2023-05-23T13:32:02;23.40;99.90
14723;DHT22;7452;55.594;12.986;2023-05-23T13:34:29;23.50;99.90
14723;DHT22;7452;55.594;12.986;2023-05-23T13:36:58;23.40;99.90
14723;DHT22;7452;55.594;12.986;2023-05-23T13:39:25;23.40;99.90
14723;DHT22;7452;55.594;12.986;2023-05-23T13:41:52;23.40;99.90
14723;DHT22;7452;55.594;12.986;2023-05-23T13:44:19;23.40;99.90
14723;DHT22;7452;55.594;12.986;2023-05-23T13:46:46;23.40;99.90
14723;DHT22;7452;55.594;12.986;2023-05-23T13:49:13;23.40;99.90
14723;DHT22;7452;55.594;12.986;2023-05-23T13:51:40;23.40;99.90
14723;DHT22;7452;55.594;12.986;2023-05-23T13:54:09;23.40;99.90
14723;DHT22;7452;55.594;12.986;2023-05-23T13:56:37;23.40;99.90
14723;DHT22;7452;55.594;12.986;2023-05-23T13:59:04;23.40;99.90
14723;DHT22;7452;55.594;12.986;2023-05-23T14:01:31;23.40;99.90
14723;DHT22;7452;55.594;12.986;2023-05-23T14:03:58;23.40;99.90
14723;DHT22;7452;55.594;12.986;2023-05-23T14:06:25;23.40;99.90
14723;DHT22;7452;55.594;12.986;2023-05-23T14:08:52;23.40;99.90
14723;DHT22;7452;55.594;12.986;2023-05-23T14:11:20;23.40;99.90
14723;DHT22;7452;55.594;12.986;2023-05-23T14:13:47;23.40;99.90
14723;DHT22;7452;55.594;12.986;2023-05-23T14:16:17;23.40;99.90
14723;DHT22;7452;55.594;12.986;2023-05-23T14:18:44;23.40;99.90
14723;DHT22;7452;55.594;12.986;2023-05-23T14:21:11;23.40;99.90
14723;DHT22;7452;55.594;12.986;2023-05-23T14:23:38;23.40;99.90
14723;DHT22;7452;55.594;12.986;2023-05-23T14:26:05;23.40;99.90
14723;DHT22;7452;55.594;12.986;2023-05-23T14:28:33;23.40;99.90
14723;DHT22;7452;55.594;12.986;2023-05-23T14:31:00;23.50;99.90
14723;DHT22;7452;55.594;12.986;2023-05-23T14:33:27;23.50;99.90
14723;DHT22;7452;55.594;12.986;2023-05-23T14:35:54;23.50;99.90
14723;DHT22;7452;55.594;12.986;2023-05-23T14:38:21;23.50;99.90
14723;DHT22;7452;55.594;12.986;2023-05-23T14:40:48;23.50;99.90
14723;DHT22;7452;55.594;12.986;2023-05-23T14:43:15;23.50;99.90
14723;DHT22;7452;55.594;12.986;2023-05-23T14:45:43;23.50;99.90
14723;DHT22;7452;55.594;12.986;2023-05-23T14:48:10;23.50;99.90
14723;DHT22;7452;55.594;12.986;2023-05-23T14:50:37;23.50;99.90
14723;DHT22;7452;55.594;12.986;2023-05-23T14:53:05;23.50;99.90
14723;DHT22;7452;55.594;12.986;2023-05-23T14:55:32;23.50;99.90
14723;DHT22;7452;55.594;12.986;2023-05-23T14:57:59;23.50;99.90
14723;DHT22;7452;55.594;12.986;2023-05-23T15:00:28;23.50;99.90
14723;DHT22;7452;55.594;12.986;2023-05-23T15:02:56;23.50;99.90
14723;DHT22;7452;55.594;12.986;2023-05-23T15:05:23;23.50;99.90
14723;DHT22;7452;55.594;12.986;2023-05-23T15:07:50;23.50;99.90
14723;DHT22;7452;55.594;12.986;2023-05-23T15:10:17;23.50;99.90
14723;DHT22;7452;55.594;12.986;2023-05-23T15:12:44;23.50;99.90
14723;DHT22;7452;55.594;12.986;2023-05-23T15:15:11;23.50;99.90
14723;DHT22;7452;55.594;12.986;2023-05-23T15:17:38;23.50;99.90
14723;DHT22;7452;55.594;12.986;2023-05-23T15:20:08;23.50;99.90
14723;DHT22;7452;55.594;12.986;2023-05-23T15:22:35;23.50;99.90
14723;DHT22;7452;55.594;12.986;2023-05-23T15:25:02;23.50;99.90
14723;DHT22;7452;55.594;12.986;2023-05-23T15:27:29;23.50;99.90
14723;DHT22;7452;55.594;12.986;2023-05-23T15:29:56;23.50;99.90
14723;DHT22;7452;55.594;12.986;2023-05-23T15:32:23;23.50;99.90
14723;DHT22;7452;55.594;12.986;2023-05-23T15:34:50;23.60;99.90
14723;DHT22;7452;55.594;12.986;2023-05-23T15:37:18;23.50;99.90
14723;DHT22;7452;55.594;12.986;2023-05-23T15:39:45;23.50;99.90
14723;DHT22;7452;55.594;12.986;2023-05-23T15:42:13;23.60;99.90